createdAt,value
2018-01-23T00:01:59.357Z,1.85
2018-01-23T00:04:26.848Z,2.47
2018-01-23T00:06:54.453Z,2.20
2018-01-23T00:09:22.146Z,1.37
2018-01-23T00:11:50.033Z,2.10
2018-01-23T00:14:17.608Z,1.00
2018-01-23T00:16:45.171Z,2.15
2018-01-23T00:19:12.653Z,1.00
2018-01-23T00:21:40.910Z,1.33
2018-01-23T00:24:08.441Z,2.12
2018-01-23T00:26:36.004Z,1.62
2018-01-23T00:29:03.502Z,1.40
2018-01-23T00:31:31.788Z,1.98
2018-01-23T00:34:00.089Z,1.75
2018-01-23T00:36:27.552Z,2.55
2018-01-23T00:38:55.070Z,2.03
2018-01-23T00:41:22.599Z,2.15
2018-01-23T00:43:50.889Z,2.50
2018-01-23T00:46:19.143Z,1.90
2018-01-23T00:48:46.710Z,2.60
2018-01-23T00:51:14.221Z,2.50
2018-01-23T00:53:41.777Z,3.47
2018-01-23T00:56:09.387Z,4.62
2018-01-23T00:58:36.994Z,4.20
2018-01-23T01:01:04.533Z,2.97
2018-01-23T01:03:32.794Z,3.40
2018-01-23T01:06:01.105Z,3.33
2018-01-23T01:08:29.453Z,2.60
2018-01-23T01:10:56.984Z,2.85
2018-01-23T01:13:24.609Z,2.47
2018-01-23T01:15:52.136Z,3.35
2018-01-23T01:18:19.714Z,2.42
2018-01-23T01:20:47.301Z,4.80
2018-01-23T01:23:14.843Z,3.00
2018-01-23T01:25:42.579Z,2.65
2018-01-23T01:28:10.912Z,2.08
2018-01-23T01:30:38.413Z,2.53
2018-01-23T01:33:06.035Z,2.25
2018-01-23T01:35:33.582Z,4.60
2018-01-23T01:38:01.189Z,4.95
2018-01-23T01:40:28.765Z,4.03
2018-01-23T01:42:57.085Z,4.03
2018-01-23T01:45:24.673Z,3.70
2018-01-23T01:47:52.236Z,2.12
2018-01-23T01:50:19.792Z,1.70
2018-01-23T01:52:47.379Z,1.98
2018-01-23T01:55:14.855Z,1.90
2018-01-23T01:57:42.460Z,1.48
2018-01-23T02:00:10.010Z,1.50
2018-01-23T02:02:38.547Z,1.85
2018-01-23T02:05:06.920Z,2.40
2018-01-23T02:07:34.496Z,2.65
2018-01-23T02:10:02.791Z,2.17
2018-01-23T02:12:31.128Z,2.30
2018-01-23T02:14:58.632Z,2.00
2018-01-23T02:17:26.149Z,1.48
2018-01-23T02:19:54.807Z,2.25
2018-01-23T02:22:22.382Z,1.67
2018-01-23T02:24:49.918Z,1.30
2018-01-23T02:27:17.416Z,1.17
2018-01-23T02:29:45.850Z,1.80
2018-01-23T02:32:13.363Z,1.40
2018-01-23T02:34:40.874Z,1.00
2018-01-23T02:37:08.399Z,1.10
2018-01-23T02:39:36.703Z,1.15
2018-01-23T02:42:04.316Z,1.05
2018-01-23T02:44:32.425Z,1.30
2018-01-23T02:46:59.976Z,1.20
2018-01-23T02:49:27.600Z,0.70
2018-01-23T02:51:55.141Z,1.60
2018-01-23T02:54:22.653Z,0.98
2018-01-23T02:56:50.736Z,0.85
2018-01-23T02:59:18.422Z,0.50
2018-01-23T03:01:45.981Z,0.80
2018-01-23T03:04:13.529Z,0.60
2018-01-23T03:06:41.052Z,0.70
2018-01-23T03:09:09.312Z,0.70
2018-01-23T03:11:37.765Z,0.60
2018-01-23T03:14:05.365Z,0.57
2018-01-23T03:16:33.006Z,0.68
2018-01-23T03:19:00.574Z,0.65
2018-01-23T03:21:28.890Z,0.70
2018-01-23T03:23:56.625Z,0.90
2018-01-23T03:26:24.386Z,0.60
2018-01-23T03:28:52.699Z,0.60
2018-01-23T03:31:20.281Z,1.00
2018-01-23T03:33:47.848Z,0.60
2018-01-23T03:36:15.394Z,0.55
2018-01-23T03:38:42.967Z,0.60
2018-01-23T03:41:10.545Z,1.02
2018-01-23T03:43:38.689Z,1.35
2018-01-23T03:46:06.240Z,0.65
2018-01-23T03:48:33.812Z,0.60
2018-01-23T03:51:01.425Z,0.50
2018-01-23T03:53:28.965Z,0.80
2018-01-23T03:55:56.562Z,2.37
2018-01-23T03:58:24.071Z,0.80
2018-01-23T04:00:51.759Z,1.75
2018-01-23T04:03:19.220Z,1.10
2018-01-23T04:05:46.801Z,1.98
2018-01-23T04:08:14.324Z,1.30
2018-01-23T04:10:41.829Z,0.95
2018-01-23T04:13:09.325Z,0.90
2018-01-23T04:15:36.812Z,1.15
2018-01-23T04:18:05.317Z,1.10
2018-01-23T04:20:32.873Z,1.70
2018-01-23T04:23:00.404Z,1.65
2018-01-23T04:25:28.056Z,1.73
2018-01-23T04:27:55.549Z,1.35
2018-01-23T04:30:23.064Z,1.55
2018-01-23T04:32:50.590Z,1.27
2018-01-23T04:35:18.232Z,1.10
2018-01-23T04:37:45.767Z,1.58
2018-01-23T04:40:14.866Z,1.20
2018-01-23T04:42:42.368Z,1.00
2018-01-23T04:45:09.866Z,1.15
2018-01-23T04:47:37.372Z,0.80
2018-01-23T04:50:04.928Z,1.08
2018-01-23T04:52:32.446Z,0.60
2018-01-23T04:55:00.281Z,1.33
2018-01-23T04:57:27.847Z,0.88
2018-01-23T04:59:55.676Z,0.88
2018-01-23T05:02:23.184Z,0.93
2018-01-23T05:04:50.716Z,0.70
2018-01-23T05:07:18.267Z,0.80
2018-01-23T05:09:45.770Z,0.70
2018-01-23T05:12:13.289Z,1.33
2018-01-23T05:14:41.438Z,0.70
2018-01-23T05:17:08.975Z,0.57
2018-01-23T05:19:38.026Z,0.50
2018-01-23T05:22:05.522Z,1.10
2018-01-23T05:24:33.053Z,1.08
2018-01-23T05:27:00.614Z,0.82
2018-01-23T05:29:28.095Z,1.33
2018-01-23T05:31:55.653Z,2.08
2018-01-23T05:34:23.229Z,0.98
2018-01-23T05:36:50.805Z,0.90
2018-01-23T05:39:18.597Z,0.95
2018-01-23T05:41:46.113Z,0.90
2018-01-23T05:44:13.662Z,1.02
2018-01-23T05:46:41.230Z,1.08
2018-01-23T05:49:08.741Z,1.00
2018-01-23T05:51:36.334Z,1.00
2018-01-23T05:54:04.050Z,0.80
2018-01-23T05:56:32.225Z,1.20
2018-01-23T05:58:59.899Z,0.80
2018-01-23T06:01:27.351Z,0.73
2018-01-23T06:03:54.934Z,0.70
2018-01-23T06:06:22.423Z,0.90
2018-01-23T06:08:49.937Z,1.17
2018-01-23T06:11:17.466Z,0.95
2018-01-23T06:13:45.716Z,1.45
2018-01-23T06:16:13.367Z,1.00
2018-01-23T06:18:40.870Z,0.80
2018-01-23T06:21:09.117Z,0.77
2018-01-23T06:23:36.670Z,1.08
2018-01-23T06:26:04.355Z,0.82
2018-01-23T06:28:31.876Z,0.93
2018-01-23T06:30:59.428Z,0.95
2018-01-23T06:33:26.928Z,0.70
2018-01-23T06:35:55.222Z,1.42
2018-01-23T06:38:22.755Z,0.90
2018-01-23T06:40:50.342Z,1.25
2018-01-23T06:43:18.641Z,1.12
2018-01-23T06:45:46.213Z,1.70
2018-01-23T06:48:13.701Z,1.30
2018-01-23T06:50:41.317Z,1.27
2018-01-23T06:53:09.089Z,1.62
2018-01-23T06:55:36.623Z,2.08
2018-01-23T06:58:04.403Z,1.62
2018-01-23T07:00:31.894Z,1.17
2018-01-23T07:02:59.416Z,1.50
2018-01-23T07:05:27.036Z,1.30
2018-01-23T07:07:55.305Z,1.20
2018-01-23T07:10:22.863Z,1.40
2018-01-23T07:12:52.076Z,1.92
2018-01-23T07:15:20.438Z,2.75
2018-01-23T07:17:48.080Z,1.95
2018-01-23T07:20:15.607Z,1.27
2018-01-23T07:22:43.242Z,1.70
2018-01-23T07:25:10.718Z,1.45
2018-01-23T07:27:38.218Z,1.60
2018-01-23T07:30:05.860Z,1.65
2018-01-23T07:32:33.361Z,1.60
2018-01-23T07:35:01.646Z,2.20
2018-01-23T07:37:30.825Z,1.75
2018-01-23T07:39:58.359Z,2.80
2018-01-23T07:42:25.881Z,2.15
2018-01-23T07:44:53.368Z,2.15
2018-01-23T07:47:20.876Z,1.70
2018-01-23T07:49:48.327Z,1.50
2018-01-23T07:52:17.324Z,1.77
2018-01-23T07:54:44.842Z,2.10
2018-01-23T07:57:12.494Z,2.97
2018-01-23T07:59:40.008Z,1.73
2018-01-23T08:02:07.677Z,1.45
2018-01-23T08:04:36.081Z,1.50
2018-01-23T08:07:03.573Z,1.67
2018-01-23T08:09:31.218Z,2.97
2018-01-23T08:11:58.716Z,2.42
2018-01-23T08:14:26.268Z,2.67
2018-01-23T08:16:53.729Z,2.65
2018-01-23T08:19:21.428Z,1.65
2018-01-23T08:21:49.784Z,2.22
2018-01-23T08:24:17.454Z,2.45
2018-01-23T08:26:45.731Z,2.05
2018-01-23T08:29:14.017Z,2.10
2018-01-23T08:31:42.271Z,1.87
2018-01-23T08:34:10.736Z,1.55
2018-01-23T08:36:38.209Z,1.62
2018-01-23T08:39:06.223Z,1.98
2018-01-23T08:41:33.795Z,1.25
2018-01-23T08:44:01.957Z,2.05
2018-01-23T08:46:29.424Z,1.85
2018-01-23T08:48:57.144Z,1.77
2018-01-23T08:51:25.408Z,1.60
2018-01-23T08:53:53.416Z,1.73
2018-01-23T08:56:21.324Z,1.95
2018-01-23T08:58:48.925Z,1.10
2018-01-23T09:01:16.398Z,2.10
2018-01-23T09:03:44.096Z,2.15
2018-01-23T09:06:11.671Z,1.58
2018-01-23T09:08:39.194Z,1.85
2018-01-23T09:11:06.651Z,2.42
2018-01-23T09:13:34.243Z,1.25
2018-01-23T09:16:01.769Z,2.20
2018-01-23T09:18:29.349Z,2.37
2018-01-23T09:20:57.098Z,2.90
2018-01-23T09:23:24.600Z,2.45
2018-01-23T09:25:52.117Z,1.98
2018-01-23T09:28:19.593Z,2.12
2018-01-23T09:30:47.042Z,2.17
2018-01-23T09:33:14.797Z,2.08
2018-01-23T09:35:42.298Z,1.40
2018-01-23T09:38:09.951Z,1.92
2018-01-23T09:40:37.478Z,1.30
2018-01-23T09:43:05.041Z,1.67
2018-01-23T09:45:32.608Z,1.42
2018-01-23T09:48:00.091Z,1.60
2018-01-23T09:50:27.615Z,2.10
2018-01-23T09:52:55.312Z,2.83
2018-01-23T09:55:23.593Z,2.12
2018-01-23T09:57:51.212Z,2.70
2018-01-23T10:00:18.713Z,2.10
2018-01-23T10:02:46.204Z,2.72
2018-01-23T10:05:14.576Z,2.92
2018-01-23T10:07:42.114Z,3.42
2018-01-23T10:10:09.761Z,3.60
2018-01-23T10:12:37.239Z,3.55
2018-01-23T10:15:04.736Z,2.40
2018-01-23T10:17:32.325Z,2.83
2018-01-23T10:19:59.919Z,3.37
2018-01-23T10:22:27.475Z,2.05
2018-01-23T10:24:55.702Z,1.48
2018-01-23T10:27:23.198Z,1.27
2018-01-23T10:29:50.808Z,3.37
2018-01-23T10:32:18.269Z,2.78
2018-01-23T10:34:45.761Z,3.12
2018-01-23T10:37:13.316Z,1.92
2018-01-23T10:39:40.825Z,1.92
2018-01-23T10:42:08.494Z,2.37
2018-01-23T10:44:36.112Z,2.22
2018-01-23T10:47:03.558Z,2.58
2018-01-23T10:49:31.094Z,2.03
2018-01-23T10:51:58.696Z,2.03
2018-01-23T10:54:26.514Z,2.72
2018-01-23T10:56:54.075Z,2.55
2018-01-23T10:59:21.559Z,2.62
2018-01-23T11:01:49.128Z,2.72
2018-01-23T11:04:16.684Z,2.42
2018-01-23T11:06:44.196Z,2.15
2018-01-23T11:09:11.759Z,2.00
2018-01-23T11:11:40.217Z,2.60
2018-01-23T11:14:08.648Z,2.37
2018-01-23T11:16:36.168Z,1.95
2018-01-23T11:19:03.811Z,3.05
2018-01-23T11:21:31.289Z,2.85
2018-01-23T11:23:59.059Z,3.92
2018-01-23T11:26:26.565Z,3.35
2018-01-23T11:28:54.043Z,3.03
2018-01-23T11:31:21.572Z,4.57
2018-01-23T11:33:49.134Z,3.12
2018-01-23T11:36:16.645Z,3.67
2018-01-23T11:38:44.112Z,3.05
2018-01-23T11:41:11.789Z,2.60
2018-01-23T11:43:39.354Z,4.50
2018-01-23T11:46:06.906Z,3.15
2018-01-23T11:48:34.382Z,4.57
2018-01-23T11:51:01.936Z,3.70
2018-01-23T11:53:29.690Z,3.22
2018-01-23T11:55:57.352Z,3.67
2018-01-23T11:58:24.851Z,2.30
2018-01-23T12:00:52.897Z,0.82
2018-01-23T12:03:20.464Z,1.10
2018-01-23T12:05:48.105Z,1.77
2018-01-23T12:08:15.727Z,2.50
2018-01-23T12:10:44.145Z,1.20
2018-01-23T12:13:11.706Z,1.00
2018-01-23T12:15:39.268Z,1.25
2018-01-23T12:18:06.778Z,1.37
2018-01-23T12:20:34.341Z,1.23
2018-01-23T12:23:01.953Z,2.20
2018-01-23T12:25:29.499Z,1.65
2018-01-23T12:27:57.160Z,2.15
2018-01-23T12:30:24.847Z,2.30
2018-01-23T12:32:52.396Z,1.70
2018-01-23T12:35:19.911Z,1.15
2018-01-23T12:37:47.489Z,1.08
2018-01-23T12:40:14.951Z,1.50
2018-01-23T12:42:42.514Z,1.40
2018-01-23T12:45:10.190Z,1.30
2018-01-23T12:47:37.733Z,1.60
2018-01-23T12:50:05.251Z,2.03
2018-01-23T12:52:32.805Z,1.73
2018-01-23T12:55:00.326Z,2.55
2018-01-23T12:57:27.766Z,2.12
2018-01-23T12:59:55.387Z,3.37
2018-01-23T13:02:22.887Z,2.20
2018-01-23T13:04:50.608Z,2.22
2018-01-23T13:07:18.121Z,1.60
2018-01-23T13:09:45.658Z,1.65
2018-01-23T13:12:14.007Z,2.72
2018-01-23T13:14:41.626Z,2.42
2018-01-23T13:17:09.122Z,2.75
2018-01-23T13:19:36.730Z,1.95
2018-01-23T13:22:04.511Z,2.15
2018-01-23T13:24:32.054Z,2.15
2018-01-23T13:26:59.776Z,2.60
2018-01-23T13:29:27.287Z,1.65
2018-01-23T13:31:54.753Z,2.62
2018-01-23T13:34:22.265Z,3.47
2018-01-23T13:36:50.508Z,1.33
2018-01-23T13:39:18.040Z,1.65
2018-01-23T13:41:45.590Z,2.30
2018-01-23T13:44:13.371Z,2.20
2018-01-23T13:46:40.824Z,3.58
2018-01-23T13:49:08.366Z,2.75
2018-01-23T13:51:36.094Z,2.15
2018-01-23T13:54:03.750Z,2.42
2018-01-23T13:56:31.233Z,2.03
2018-01-23T13:58:59.552Z,2.00
2018-01-23T14:01:27.071Z,1.90
2018-01-23T14:03:54.717Z,1.52
2018-01-23T14:06:22.345Z,1.98
2018-01-23T14:08:49.890Z,2.30
2018-01-23T14:11:17.455Z,1.95
2018-01-23T14:13:44.995Z,1.77
2018-01-23T14:16:12.860Z,2.62
2018-01-23T14:18:40.374Z,2.20
2018-01-23T14:21:07.903Z,2.47
2018-01-23T14:23:35.474Z,3.33
2018-01-23T14:26:02.978Z,2.22
2018-01-23T14:28:31.281Z,2.45
2018-01-23T14:30:58.786Z,3.80
2018-01-23T14:33:26.377Z,2.45
2018-01-23T14:35:53.935Z,2.03
2018-01-23T14:38:21.453Z,2.20
2018-01-23T14:40:49.159Z,2.87
2018-01-23T14:43:16.724Z,2.75
2018-01-23T14:45:44.282Z,2.97
2018-01-23T14:48:11.999Z,2.58
2018-01-23T14:50:39.525Z,3.28
2018-01-23T14:53:07.035Z,1.85
2018-01-23T14:55:35.308Z,2.53
2018-01-23T14:58:03.117Z,2.45
2018-01-23T15:00:30.782Z,3.10
2018-01-23T15:02:58.447Z,2.62
2018-01-23T15:05:26.022Z,2.75
2018-01-23T15:07:53.527Z,2.03
2018-01-23T15:10:21.638Z,2.58
2018-01-23T15:12:49.283Z,1.77
2018-01-23T15:15:16.962Z,2.58
2018-01-23T15:17:45.421Z,2.28
2018-01-23T15:20:13.038Z,1.75
2018-01-23T15:22:40.568Z,1.75
2018-01-23T15:25:08.098Z,1.58
2018-01-23T15:27:35.650Z,2.25
2018-01-23T15:30:03.206Z,2.15
2018-01-23T15:32:31.532Z,1.30
2018-01-23T15:34:59.171Z,0.90
2018-01-23T15:37:26.813Z,1.37
2018-01-23T15:39:54.355Z,0.80
2018-01-23T15:42:21.845Z,0.95
2018-01-23T15:44:49.314Z,1.15
2018-01-23T15:47:16.847Z,0.80
2018-01-23T15:49:45.185Z,1.10
2018-01-23T15:52:12.851Z,1.55
2018-01-23T15:54:40.411Z,1.10
2018-01-23T15:57:08.862Z,0.90
2018-01-23T15:59:36.479Z,1.15
2018-01-23T16:02:03.999Z,1.65
2018-01-23T16:04:31.561Z,1.00
2018-01-23T16:06:59.218Z,1.70
2018-01-23T16:09:26.965Z,1.95
2018-01-23T16:11:54.531Z,1.37
2018-01-23T16:14:22.131Z,0.80
2018-01-23T16:16:49.746Z,0.60
2018-01-23T16:19:17.470Z,1.50
2018-01-23T16:21:45.882Z,1.95
2018-01-23T16:24:13.425Z,1.08
2018-01-23T16:26:41.213Z,1.35
2018-01-23T16:29:08.752Z,1.90
2018-01-23T16:31:36.287Z,1.73
2018-01-23T16:34:04.232Z,1.37
2018-01-23T16:36:31.860Z,2.75
2018-01-23T16:39:00.769Z,1.35
2018-01-23T16:41:28.435Z,2.15
2018-01-23T16:43:56.000Z,1.83
2018-01-23T16:46:23.661Z,2.00
2018-01-23T16:48:51.210Z,2.22
2018-01-23T16:51:18.748Z,3.08
2018-01-23T16:53:46.265Z,1.67
2018-01-23T16:56:13.873Z,1.00
2018-01-23T16:58:41.392Z,1.70
2018-01-23T17:01:09.669Z,2.83
2018-01-23T17:03:37.308Z,2.75
2018-01-23T17:06:04.935Z,2.10
2018-01-23T17:08:32.454Z,2.40
2018-01-23T17:11:00.035Z,2.00
2018-01-23T17:13:27.748Z,2.80
2018-01-23T17:15:55.251Z,1.55
2018-01-23T17:18:22.806Z,1.40
2018-01-23T17:20:50.341Z,2.47
2018-01-23T17:23:17.887Z,2.67
2018-01-23T17:25:45.481Z,1.95
2018-01-23T17:28:13.050Z,1.80
2018-01-23T17:30:40.565Z,3.60
2018-01-23T17:33:08.106Z,2.53
2018-01-23T17:35:35.668Z,1.80
2018-01-23T17:38:03.766Z,2.22
2018-01-23T17:40:31.425Z,3.08
2018-01-23T17:42:59.014Z,1.90
2018-01-23T17:45:27.431Z,1.75
2018-01-23T17:47:54.983Z,3.08
2018-01-23T17:50:22.652Z,1.90
2018-01-23T17:52:50.407Z,2.50
2018-01-23T17:55:17.943Z,2.00
2018-01-23T17:57:45.509Z,2.70
2018-01-23T18:00:13.305Z,2.00
2018-01-23T18:02:40.854Z,2.10
2018-01-23T18:05:08.434Z,2.37
2018-01-23T18:07:36.357Z,2.60
2018-01-23T18:10:04.631Z,3.20
2018-01-23T18:12:32.193Z,2.80
2018-01-23T18:15:00.624Z,2.28
2018-01-23T18:17:28.170Z,2.45
2018-01-23T18:19:55.722Z,1.73
2018-01-23T18:22:23.275Z,2.05
2018-01-23T18:24:50.952Z,2.50
2018-01-23T18:27:18.645Z,2.25
2018-01-23T18:29:46.218Z,1.73
2018-01-23T18:32:13.761Z,1.98
2018-01-23T18:34:41.457Z,2.65
2018-01-23T18:37:09.055Z,1.55
2018-01-23T18:39:36.786Z,1.70
2018-01-23T18:42:04.361Z,1.20
2018-01-23T18:44:31.842Z,2.05
2018-01-23T18:46:59.385Z,1.65
2018-01-23T18:49:27.988Z,1.90
2018-01-23T18:51:55.612Z,1.95
2018-01-23T18:54:23.162Z,2.28
2018-01-23T18:56:51.528Z,2.42
2018-01-23T18:59:19.058Z,3.35
2018-01-23T19:01:46.605Z,2.22
2018-01-23T19:04:14.216Z,3.40
2018-01-23T19:06:42.534Z,3.47
2018-01-23T19:09:10.314Z,2.03
2018-01-23T19:11:37.961Z,1.80
2018-01-23T19:14:05.514Z,2.35
2018-01-23T19:16:33.025Z,2.90
2018-01-23T19:19:00.640Z,1.48
2018-01-23T19:21:28.181Z,1.62
2018-01-23T19:23:55.794Z,2.03
2018-01-23T19:26:23.351Z,2.83
2018-01-23T19:28:50.930Z,2.42
2018-01-23T19:31:18.503Z,1.77
2018-01-23T19:33:46.800Z,3.00
2018-01-23T19:36:14.412Z,3.25
2018-01-23T19:38:43.002Z,2.80
2018-01-23T19:41:10.556Z,3.50
2018-01-23T19:43:38.215Z,2.87
2018-01-23T19:46:05.742Z,2.10
2018-01-23T19:48:33.297Z,4.47
2018-01-23T19:51:00.858Z,2.97
2018-01-23T19:53:28.380Z,2.58
2018-01-23T19:55:55.884Z,3.15
2018-01-23T19:58:23.407Z,2.55
2018-01-23T20:00:51.023Z,4.07
2018-01-23T20:03:18.606Z,4.68
2018-01-23T20:05:46.167Z,2.30
2018-01-23T20:08:13.999Z,3.40
2018-01-23T20:10:41.653Z,4.90
2018-01-23T20:13:09.498Z,3.62
2018-01-23T20:15:37.163Z,4.07
2018-01-23T20:18:04.772Z,2.97
2018-01-23T20:20:32.434Z,2.95
2018-01-23T20:23:00.183Z,3.62
2018-01-23T20:25:27.956Z,3.55
2018-01-23T20:27:55.593Z,4.15
2018-01-23T20:30:23.153Z,2.75
2018-01-23T20:32:50.772Z,3.83
2018-01-23T20:35:18.546Z,3.72
2018-01-23T20:37:46.166Z,3.20
2018-01-23T20:40:13.880Z,3.33
2018-01-23T20:42:41.402Z,3.03
2018-01-23T20:45:08.983Z,2.42
2018-01-23T20:47:37.493Z,3.97
2018-01-23T20:50:05.087Z,3.58
2018-01-23T20:52:32.659Z,3.12
2018-01-23T20:55:00.118Z,2.45
2018-01-23T20:57:27.601Z,3.87
2018-01-23T20:59:55.215Z,2.85
2018-01-23T21:02:22.769Z,3.17
2018-01-23T21:04:50.374Z,3.55
2018-01-23T21:07:18.002Z,3.22
2018-01-23T21:09:45.502Z,4.12
2018-01-23T21:12:13.081Z,4.35
2018-01-23T21:14:40.949Z,3.00
2018-01-23T21:17:08.518Z,5.37
2018-01-23T21:19:36.070Z,3.30
2018-01-23T21:22:03.646Z,3.67
2018-01-23T21:24:31.154Z,3.92
2018-01-23T21:26:59.471Z,3.47
2018-01-23T21:29:27.026Z,6.15
2018-01-23T21:31:54.598Z,6.15
2018-01-23T21:34:22.150Z,3.80
2018-01-23T21:36:49.738Z,5.07
2018-01-23T21:39:17.467Z,3.87
2018-01-23T21:41:45.036Z,3.83
2018-01-23T21:44:12.717Z,4.75
2018-01-23T21:46:40.366Z,4.93
2018-01-23T21:49:07.904Z,3.53
2018-01-23T21:51:35.503Z,3.83
2018-01-23T21:54:03.169Z,4.50
2018-01-23T21:56:30.696Z,4.32
2018-01-23T21:58:58.240Z,2.87
2018-01-23T22:01:26.067Z,3.85
2018-01-23T22:03:53.670Z,4.68
2018-01-23T22:06:21.237Z,4.82
2018-01-23T22:08:48.751Z,2.83
2018-01-23T22:11:16.224Z,4.30
2018-01-23T22:13:43.787Z,4.68
2018-01-23T22:16:11.325Z,3.75
2018-01-23T22:18:39.043Z,3.83
2018-01-23T22:21:06.585Z,3.45
2018-01-23T22:23:34.143Z,4.47
2018-01-23T22:26:01.660Z,4.43
2018-01-23T22:28:29.250Z,4.10
2018-01-23T22:30:56.846Z,5.10
2018-01-23T22:33:24.338Z,4.12
2018-01-23T22:35:51.963Z,3.97
2018-01-23T22:38:19.523Z,3.37
2018-01-23T22:40:47.069Z,3.40
2018-01-23T22:43:14.699Z,4.40
2018-01-23T22:45:43.326Z,4.20
2018-01-23T22:48:10.955Z,3.70
2018-01-23T22:50:39.339Z,3.37
2018-01-23T22:53:06.940Z,3.33
2018-01-23T22:55:34.539Z,3.50
2018-01-23T22:58:02.447Z,3.47
2018-01-23T23:00:30.076Z,3.83
2018-01-23T23:02:57.636Z,4.78
2018-01-23T23:05:25.353Z,3.08
2018-01-23T23:07:52.982Z,3.92
2018-01-23T23:12:53.560Z,4.68
2018-01-23T23:15:21.084Z,3.67
2018-01-23T23:17:49.442Z,4.32
2018-01-23T23:20:17.266Z,3.90
2018-01-23T23:22:45.107Z,3.62
2018-01-23T23:25:12.561Z,3.95
2018-01-23T23:27:40.103Z,4.10
2018-01-23T23:30:07.609Z,4.07
2018-01-23T23:32:35.339Z,4.30
2018-01-23T23:35:03.641Z,4.78
2018-01-23T23:37:31.446Z,3.60
2018-01-23T23:39:59.034Z,3.50
2018-01-23T23:42:26.571Z,3.45
2018-01-23T23:44:54.730Z,3.47
2018-01-23T23:47:22.334Z,3.85
2018-01-23T23:49:49.986Z,3.67
2018-01-23T23:52:17.618Z,3.92
2018-01-23T23:54:45.274Z,2.80
2018-01-23T23:57:12.844Z,2.78
2018-01-23T23:59:40.400Z,4.87
